sensor_id;sensor_type;location;lat;lon;timestamp;P1;durP1;ratioP1;P2;durP2;ratioP2
22543;SDS011;11438;52.044;8.716;2023-12-28T00:01:23;3.15;;;1.20;;
22543;SDS011;11438;52.044;8.716;2023-12-28T00:03:48;2.53;;;1.05;;
22543;SDS011;11438;52.044;8.716;2023-12-28T00:06:14;2.75;;;1.13;;
22543;SDS011;11438;52.044;8.716;2023-12-28T00:08:40;1.60;;;0.82;;
22543;SDS011;11438;52.044;8.716;2023-12-28T00:11:06;3.63;;;1.20;;
22543;SDS011;11438;52.044;8.716;2023-12-28T00:13:32;3.97;;;1.17;;
22543;SDS011;11438;52.044;8.716;2023-12-28T00:15:57;1.92;;;0.93;;
22543;SDS011;11438;52.044;8.716;2023-12-28T00:18:23;1.55;;;1.10;;
22543;SDS011;11438;52.044;8.716;2023-12-28T00:20:49;2.20;;;1.00;;
22543;SDS011;11438;52.044;8.716;2023-12-28T00:23:15;3.35;;;1.23;;
22543;SDS011;11438;52.044;8.716;2023-12-28T00:25:40;3.53;;;1.42;;
22543;SDS011;11438;52.044;8.716;2023-12-28T00:28:06;1.63;;;1.35;;
22543;SDS011;11438;52.044;8.716;2023-12-28T00:30:31;2.78;;;1.27;;
22543;SDS011;11438;52.044;8.716;2023-12-28T00:32:57;4.68;;;2.13;;
22543;SDS011;11438;52.044;8.716;2023-12-28T00:35:23;5.38;;;2.15;;
22543;SDS011;11438;52.044;8.716;2023-12-28T00:37:48;3.22;;;2.00;;
22543;SDS011;11438;52.044;8.716;2023-12-28T00:40:14;8.13;;;4.25;;
22543;SDS011;11438;52.044;8.716;2023-12-28T00:42:39;3.65;;;2.42;;
22543;SDS011;11438;52.044;8.716;2023-12-28T00:45:06;4.53;;;2.38;;
22543;SDS011;11438;52.044;8.716;2023-12-28T00:47:32;3.55;;;2.10;;
22543;SDS011;11438;52.044;8.716;2023-12-28T00:49:58;4.72;;;2.45;;
22543;SDS011;11438;52.044;8.716;2023-12-28T00:52:23;2.20;;;1.50;;
22543;SDS011;11438;52.044;8.716;2023-12-28T00:54:49;1.73;;;1.23;;
22543;SDS011;11438;52.044;8.716;2023-12-28T00:57:14;3.08;;;1.25;;
22543;SDS011;11438;52.044;8.716;2023-12-28T00:59:39;2.15;;;1.05;;
22543;SDS011;11438;52.044;8.716;2023-12-28T01:02:05;2.15;;;1.20;;
22543;SDS011;11438;52.044;8.716;2023-12-28T01:04:31;3.03;;;1.20;;
22543;SDS011;11438;52.044;8.716;2023-12-28T01:06:56;1.80;;;1.20;;
22543;SDS011;11438;52.044;8.716;2023-12-28T01:09:23;2.42;;;1.27;;
22543;SDS011;11438;52.044;8.716;2023-12-28T01:11:49;1.80;;;1.27;;
22543;SDS011;11438;52.044;8.716;2023-12-28T01:14:15;2.28;;;1.08;;
22543;SDS011;11438;52.044;8.716;2023-12-28T01:16:40;1.85;;;1.10;;
22543;SDS011;11438;52.044;8.716;2023-12-28T01:19:06;2.03;;;1.27;;
22543;SDS011;11438;52.044;8.716;2023-12-28T01:21:31;3.10;;;1.35;;
22543;SDS011;11438;52.044;8.716;2023-12-28T01:23:57;2.15;;;1.30;;
22543;SDS011;11438;52.044;8.716;2023-12-28T01:26:22;2.05;;;1.25;;
22543;SDS011;11438;52.044;8.716;2023-12-28T01:28:48;2.42;;;1.20;;
22543;SDS011;11438;52.044;8.716;2023-12-28T01:31:13;3.70;;;1.35;;
22543;SDS011;11438;52.044;8.716;2023-12-28T01:33:39;2.08;;;1.20;;
22543;SDS011;11438;52.044;8.716;2023-12-28T01:36:17;2.42;;;1.38;;
22543;SDS011;11438;52.044;8.716;2023-12-28T01:38:44;1.77;;;1.20;;
22543;SDS011;11438;52.044;8.716;2023-12-28T01:41:09;2.90;;;1.42;;
22543;SDS011;11438;52.044;8.716;2023-12-28T01:43:35;2.47;;;1.20;;
22543;SDS011;11438;52.044;8.716;2023-12-28T01:46:01;1.98;;;1.23;;
22543;SDS011;11438;52.044;8.716;2023-12-28T01:48:27;5.65;;;1.10;;
22543;SDS011;11438;52.044;8.716;2023-12-28T01:50:53;3.90;;;1.45;;
22543;SDS011;11438;52.044;8.716;2023-12-28T01:53:20;3.13;;;1.27;;
22543;SDS011;11438;52.044;8.716;2023-12-28T01:55:45;2.30;;;1.30;;
22543;SDS011;11438;52.044;8.716;2023-12-28T01:58:11;2.95;;;1.50;;
22543;SDS011;11438;52.044;8.716;2023-12-28T02:00:37;2.90;;;1.15;;
22543;SDS011;11438;52.044;8.716;2023-12-28T02:03:03;3.40;;;1.60;;
22543;SDS011;11438;52.044;8.716;2023-12-28T02:05:33;2.53;;;1.35;;
22543;SDS011;11438;52.044;8.716;2023-12-28T02:07:59;1.60;;;1.27;;
22543;SDS011;11438;52.044;8.716;2023-12-28T02:10:25;1.70;;;1.17;;
22543;SDS011;11438;52.044;8.716;2023-12-28T02:12:51;1.80;;;1.20;;
22543;SDS011;11438;52.044;8.716;2023-12-28T02:15:18;2.53;;;1.30;;
22543;SDS011;11438;52.044;8.716;2023-12-28T02:17:48;2.05;;;1.30;;
22543;SDS011;11438;52.044;8.716;2023-12-28T02:20:20;2.25;;;1.23;;
22543;SDS011;11438;52.044;8.716;2023-12-28T02:22:46;2.22;;;1.40;;
22543;SDS011;11438;52.044;8.716;2023-12-28T02:25:12;3.58;;;1.40;;
22543;SDS011;11438;52.044;8.716;2023-12-28T02:27:41;2.08;;;1.35;;
22543;SDS011;11438;52.044;8.716;2023-12-28T02:30:09;2.45;;;1.25;;
22543;SDS011;11438;52.044;8.716;2023-12-28T02:32:40;2.95;;;1.70;;
22543;SDS011;11438;52.044;8.716;2023-12-28T02:35:31;2.58;;;1.48;;
22543;SDS011;11438;52.044;8.716;2023-12-28T02:38:00;2.15;;;1.30;;
22543;SDS011;11438;52.044;8.716;2023-12-28T02:40:28;2.78;;;1.40;;
22543;SDS011;11438;52.044;8.716;2023-12-28T02:43:00;2.25;;;1.50;;
22543;SDS011;11438;52.044;8.716;2023-12-28T02:45:26;2.55;;;1.48;;
22543;SDS011;11438;52.044;8.716;2023-12-28T02:47:51;2.40;;;1.40;;
22543;SDS011;11438;52.044;8.716;2023-12-28T02:50:17;1.77;;;1.20;;
22543;SDS011;11438;52.044;8.716;2023-12-28T02:52:43;2.42;;;1.40;;
22543;SDS011;11438;52.044;8.716;2023-12-28T02:55:08;2.58;;;1.38;;
22543;SDS011;11438;52.044;8.716;2023-12-28T02:57:34;1.88;;;1.20;;
22543;SDS011;11438;52.044;8.716;2023-12-28T03:00:02;2.78;;;1.23;;
22543;SDS011;11438;52.044;8.716;2023-12-28T03:02:29;2.00;;;1.20;;
22543;SDS011;11438;52.044;8.716;2023-12-28T03:04:54;2.83;;;1.17;;
22543;SDS011;11438;52.044;8.716;2023-12-28T03:07:20;1.45;;;1.13;;
22543;SDS011;11438;52.044;8.716;2023-12-28T03:09:46;2.90;;;1.40;;
22543;SDS011;11438;52.044;8.716;2023-12-28T03:12:11;2.25;;;1.33;;
22543;SDS011;11438;52.044;8.716;2023-12-28T03:14:36;4.53;;;1.27;;
22543;SDS011;11438;52.044;8.716;2023-12-28T03:17:02;2.20;;;1.20;;
22543;SDS011;11438;52.044;8.716;2023-12-28T03:19:28;1.73;;;1.25;;
22543;SDS011;11438;52.044;8.716;2023-12-28T03:21:53;1.80;;;1.10;;
22543;SDS011;11438;52.044;8.716;2023-12-28T03:24:19;2.05;;;1.30;;
22543;SDS011;11438;52.044;8.716;2023-12-28T03:26:44;2.65;;;1.40;;
22543;SDS011;11438;52.044;8.716;2023-12-28T03:29:10;1.95;;;1.40;;
22543;SDS011;11438;52.044;8.716;2023-12-28T03:31:39;2.10;;;1.38;;
22543;SDS011;11438;52.044;8.716;2023-12-28T03:34:05;4.43;;;1.50;;
22543;SDS011;11438;52.044;8.716;2023-12-28T03:36:31;2.53;;;1.60;;
22543;SDS011;11438;52.044;8.716;2023-12-28T03:38:56;3.15;;;1.60;;
22543;SDS011;11438;52.044;8.716;2023-12-28T03:41:22;2.42;;;1.38;;
22543;SDS011;11438;52.044;8.716;2023-12-28T03:43:47;2.25;;;1.38;;
22543;SDS011;11438;52.044;8.716;2023-12-28T03:46:13;3.92;;;1.63;;
22543;SDS011;11438;52.044;8.716;2023-12-28T03:48:39;2.75;;;1.40;;
22543;SDS011;11438;52.044;8.716;2023-12-28T03:51:04;1.90;;;1.33;;
22543;SDS011;11438;52.044;8.716;2023-12-28T03:53:30;2.53;;;1.40;;
22543;SDS011;11438;52.044;8.716;2023-12-28T03:55:58;1.73;;;1.33;;
22543;SDS011;11438;52.044;8.716;2023-12-28T03:58:24;4.22;;;1.60;;
22543;SDS011;11438;52.044;8.716;2023-12-28T04:00:49;2.17;;;1.48;;
22543;SDS011;11438;52.044;8.716;2023-12-28T04:03:15;3.95;;;1.60;;
22543;SDS011;11438;52.044;8.716;2023-12-28T04:05:41;2.78;;;1.33;;
22543;SDS011;11438;52.044;8.716;2023-12-28T04:08:08;2.45;;;1.48;;
22543;SDS011;11438;52.044;8.716;2023-12-28T04:10:34;2.95;;;1.77;;
22543;SDS011;11438;52.044;8.716;2023-12-28T04:13:01;2.85;;;1.40;;
22543;SDS011;11438;52.044;8.716;2023-12-28T04:15:27;1.35;;;1.08;;
22543;SDS011;11438;52.044;8.716;2023-12-28T04:17:53;2.33;;;1.10;;
22543;SDS011;11438;52.044;8.716;2023-12-28T04:20:18;3.63;;;1.60;;
22543;SDS011;11438;52.044;8.716;2023-12-28T04:22:44;3.15;;;1.60;;
22543;SDS011;11438;52.044;8.716;2023-12-28T04:25:09;3.05;;;1.50;;
22543;SDS011;11438;52.044;8.716;2023-12-28T04:27:35;1.95;;;1.20;;
22543;SDS011;11438;52.044;8.716;2023-12-28T04:30:01;2.75;;;1.52;;
22543;SDS011;11438;52.044;8.716;2023-12-28T04:32:26;2.03;;;1.20;;
22543;SDS011;11438;52.044;8.716;2023-12-28T04:34:52;3.60;;;1.50;;
22543;SDS011;11438;52.044;8.716;2023-12-28T04:37:19;4.72;;;1.50;;
22543;SDS011;11438;52.044;8.716;2023-12-28T04:39:45;2.47;;;1.30;;
22543;SDS011;11438;52.044;8.716;2023-12-28T04:42:10;3.13;;;1.30;;
22543;SDS011;11438;52.044;8.716;2023-12-28T04:44:39;2.10;;;1.20;;
22543;SDS011;11438;52.044;8.716;2023-12-28T04:47:05;3.40;;;1.40;;
22543;SDS011;11438;52.044;8.716;2023-12-28T04:49:31;3.58;;;1.38;;
22543;SDS011;11438;52.044;8.716;2023-12-28T04:51:56;1.85;;;1.20;;
22543;SDS011;11438;52.044;8.716;2023-12-28T04:54:22;1.25;;;0.98;;
22543;SDS011;11438;52.044;8.716;2023-12-28T04:56:48;2.53;;;1.05;;
22543;SDS011;11438;52.044;8.716;2023-12-28T04:59:14;2.30;;;1.15;;
22543;SDS011;11438;52.044;8.716;2023-12-28T05:01:42;2.15;;;1.10;;
22543;SDS011;11438;52.044;8.716;2023-12-28T05:04:08;2.00;;;1.30;;
22543;SDS011;11438;52.044;8.716;2023-12-28T05:06:34;2.60;;;1.00;;
22543;SDS011;11438;52.044;8.716;2023-12-28T05:09:00;2.28;;;1.10;;
22543;SDS011;11438;52.044;8.716;2023-12-28T05:11:26;2.90;;;1.02;;
22543;SDS011;11438;52.044;8.716;2023-12-28T05:13:51;1.80;;;1.00;;
22543;SDS011;11438;52.044;8.716;2023-12-28T05:16:17;1.77;;;1.10;;
22543;SDS011;11438;52.044;8.716;2023-12-28T05:18:43;3.38;;;1.17;;
22543;SDS011;11438;52.044;8.716;2023-12-28T05:21:08;1.83;;;1.17;;
22543;SDS011;11438;52.044;8.716;2023-12-28T05:23:33;1.42;;;1.00;;
22543;SDS011;11438;52.044;8.716;2023-12-28T05:25:59;2.75;;;1.30;;
22543;SDS011;11438;52.044;8.716;2023-12-28T05:28:25;2.20;;;1.10;;
22543;SDS011;11438;52.044;8.716;2023-12-28T05:30:50;1.23;;;0.80;;
22543;SDS011;11438;52.044;8.716;2023-12-28T05:33:16;1.95;;;1.02;;
22543;SDS011;11438;52.044;8.716;2023-12-28T05:35:41;2.25;;;1.27;;
22543;SDS011;11438;52.044;8.716;2023-12-28T05:38:07;1.85;;;1.05;;
22543;SDS011;11438;52.044;8.716;2023-12-28T05:40:32;2.15;;;1.05;;
22543;SDS011;11438;52.044;8.716;2023-12-28T05:42:58;2.40;;;1.00;;
22543;SDS011;11438;52.044;8.716;2023-12-28T05:45:23;1.88;;;1.25;;
22543;SDS011;11438;52.044;8.716;2023-12-28T05:47:49;0.93;;;0.75;;
22543;SDS011;11438;52.044;8.716;2023-12-28T05:50:15;3.17;;;1.13;;
22543;SDS011;11438;52.044;8.716;2023-12-28T05:52:40;0.98;;;0.73;;
22543;SDS011;11438;52.044;8.716;2023-12-28T05:55:06;3.15;;;1.10;;
22543;SDS011;11438;52.044;8.716;2023-12-28T05:57:31;2.83;;;1.00;;
22543;SDS011;11438;52.044;8.716;2023-12-28T05:59:57;2.38;;;1.02;;
22543;SDS011;11438;52.044;8.716;2023-12-28T06:02:22;1.50;;;0.77;;
22543;SDS011;11438;52.044;8.716;2023-12-28T06:04:48;1.55;;;1.05;;
22543;SDS011;11438;52.044;8.716;2023-12-28T06:07:13;1.83;;;0.82;;
22543;SDS011;11438;52.044;8.716;2023-12-28T06:09:39;1.63;;;0.88;;
22543;SDS011;11438;52.044;8.716;2023-12-28T06:12:05;2.30;;;1.20;;
22543;SDS011;11438;52.044;8.716;2023-12-28T06:14:31;2.22;;;0.93;;
22543;SDS011;11438;52.044;8.716;2023-12-28T06:16:56;1.83;;;1.13;;
22543;SDS011;11438;52.044;8.716;2023-12-28T06:19:22;1.88;;;0.93;;
22543;SDS011;11438;52.044;8.716;2023-12-28T06:21:48;1.73;;;1.00;;
22543;SDS011;11438;52.044;8.716;2023-12-28T06:24:13;2.63;;;1.00;;
22543;SDS011;11438;52.044;8.716;2023-12-28T06:26:42;3.08;;;1.08;;
22543;SDS011;11438;52.044;8.716;2023-12-28T06:29:09;1.98;;;0.95;;
22543;SDS011;11438;52.044;8.716;2023-12-28T06:31:35;1.65;;;0.77;;
22543;SDS011;11438;52.044;8.716;2023-12-28T06:34:04;2.22;;;0.80;;
22543;SDS011;11438;52.044;8.716;2023-12-28T06:36:31;2.63;;;1.08;;
22543;SDS011;11438;52.044;8.716;2023-12-28T06:38:57;2.83;;;0.88;;
22543;SDS011;11438;52.044;8.716;2023-12-28T06:41:24;1.98;;;0.98;;
22543;SDS011;11438;52.044;8.716;2023-12-28T06:43:50;2.30;;;1.00;;
22543;SDS011;11438;52.044;8.716;2023-12-28T06:46:16;2.15;;;1.10;;
22543;SDS011;11438;52.044;8.716;2023-12-28T06:48:42;1.83;;;0.90;;
22543;SDS011;11438;52.044;8.716;2023-12-28T06:51:08;2.60;;;0.80;;
22543;SDS011;11438;52.044;8.716;2023-12-28T06:53:34;3.58;;;0.98;;
22543;SDS011;11438;52.044;8.716;2023-12-28T06:56:00;1.90;;;0.85;;
22543;SDS011;11438;52.044;8.716;2023-12-28T06:58:25;1.90;;;0.90;;
22543;SDS011;11438;52.044;8.716;2023-12-28T07:00:50;2.10;;;0.88;;
22543;SDS011;11438;52.044;8.716;2023-12-28T07:03:16;2.95;;;0.93;;
22543;SDS011;11438;52.044;8.716;2023-12-28T07:05:42;1.88;;;1.20;;
22543;SDS011;11438;52.044;8.716;2023-12-28T07:08:07;1.63;;;1.00;;
22543;SDS011;11438;52.044;8.716;2023-12-28T07:10:33;1.35;;;0.93;;
22543;SDS011;11438;52.044;8.716;2023-12-28T07:12:58;1.35;;;1.00;;
22543;SDS011;11438;52.044;8.716;2023-12-28T07:15:24;2.70;;;1.00;;
22543;SDS011;11438;52.044;8.716;2023-12-28T07:17:50;1.27;;;0.80;;
22543;SDS011;11438;52.044;8.716;2023-12-28T07:20:15;3.30;;;1.13;;
22543;SDS011;11438;52.044;8.716;2023-12-28T07:22:41;1.40;;;0.80;;
22543;SDS011;11438;52.044;8.716;2023-12-28T07:25:06;2.33;;;1.25;;
22543;SDS011;11438;52.044;8.716;2023-12-28T07:27:35;2.10;;;1.13;;
22543;SDS011;11438;52.044;8.716;2023-12-28T07:30:02;2.67;;;1.60;;
22543;SDS011;11438;52.044;8.716;2023-12-28T07:32:30;2.58;;;1.25;;
22543;SDS011;11438;52.044;8.716;2023-12-28T07:34:56;1.58;;;1.05;;
22543;SDS011;11438;52.044;8.716;2023-12-28T07:37:21;2.42;;;1.05;;
22543;SDS011;11438;52.044;8.716;2023-12-28T07:39:47;2.47;;;1.08;;
22543;SDS011;11438;52.044;8.716;2023-12-28T07:42:13;2.28;;;1.10;;
22543;SDS011;11438;52.044;8.716;2023-12-28T07:44:38;1.10;;;0.82;;
22543;SDS011;11438;52.044;8.716;2023-12-28T07:47:04;1.83;;;1.00;;
22543;SDS011;11438;52.044;8.716;2023-12-28T07:49:30;3.90;;;1.10;;
22543;SDS011;11438;52.044;8.716;2023-12-28T07:51:56;2.67;;;1.20;;
22543;SDS011;11438;52.044;8.716;2023-12-28T07:54:21;2.17;;;1.00;;
22543;SDS011;11438;52.044;8.716;2023-12-28T07:56:47;1.55;;;0.90;;
22543;SDS011;11438;52.044;8.716;2023-12-28T07:59:12;6.80;;;1.25;;
22543;SDS011;11438;52.044;8.716;2023-12-28T08:01:38;2.03;;;1.00;;
22543;SDS011;11438;52.044;8.716;2023-12-28T08:04:04;1.60;;;1.10;;
22543;SDS011;11438;52.044;8.716;2023-12-28T08:06:29;2.30;;;1.13;;
22543;SDS011;11438;52.044;8.716;2023-12-28T08:08:58;3.33;;;1.30;;
22543;SDS011;11438;52.044;8.716;2023-12-28T08:11:26;1.50;;;1.00;;
22543;SDS011;11438;52.044;8.716;2023-12-28T08:13:51;2.97;;;1.08;;
22543;SDS011;11438;52.044;8.716;2023-12-28T08:16:17;2.85;;;1.10;;
22543;SDS011;11438;52.044;8.716;2023-12-28T08:18:43;3.22;;;1.35;;
22543;SDS011;11438;52.044;8.716;2023-12-28T08:21:08;2.97;;;1.10;;
22543;SDS011;11438;52.044;8.716;2023-12-28T08:23:33;4.95;;;1.42;;
22543;SDS011;11438;52.044;8.716;2023-12-28T08:25:59;3.83;;;1.48;;
22543;SDS011;11438;52.044;8.716;2023-12-28T08:28:25;1.70;;;1.00;;
22543;SDS011;11438;52.044;8.716;2023-12-28T08:30:50;1.98;;;1.00;;
22543;SDS011;11438;52.044;8.716;2023-12-28T08:33:16;2.28;;;0.88;;
22543;SDS011;11438;52.044;8.716;2023-12-28T08:35:41;2.00;;;1.33;;
22543;SDS011;11438;52.044;8.716;2023-12-28T08:38:07;2.40;;;1.20;;
22543;SDS011;11438;52.044;8.716;2023-12-28T08:40:33;1.90;;;1.35;;
22543;SDS011;11438;52.044;8.716;2023-12-28T08:42:59;2.47;;;1.30;;
22543;SDS011;11438;52.044;8.716;2023-12-28T08:45:24;1.80;;;1.20;;
22543;SDS011;11438;52.044;8.716;2023-12-28T08:47:50;3.30;;;1.30;;
22543;SDS011;11438;52.044;8.716;2023-12-28T08:50:15;3.47;;;1.38;;
22543;SDS011;11438;52.044;8.716;2023-12-28T08:52:40;2.05;;;1.27;;
22543;SDS011;11438;52.044;8.716;2023-12-28T08:55:06;2.90;;;1.25;;
22543;SDS011;11438;52.044;8.716;2023-12-28T08:57:32;3.72;;;1.13;;
22543;SDS011;11438;52.044;8.716;2023-12-28T08:59:58;3.58;;;1.05;;
22543;SDS011;11438;52.044;8.716;2023-12-28T09:02:27;3.22;;;1.30;;
22543;SDS011;11438;52.044;8.716;2023-12-28T09:04:53;3.40;;;1.52;;
22543;SDS011;11438;52.044;8.716;2023-12-28T09:07:18;3.08;;;1.52;;
22543;SDS011;11438;52.044;8.716;2023-12-28T09:09:44;3.75;;;1.40;;
22543;SDS011;11438;52.044;8.716;2023-12-28T09:12:10;3.60;;;1.20;;
22543;SDS011;11438;52.044;8.716;2023-12-28T09:14:36;2.92;;;1.30;;
22543;SDS011;11438;52.044;8.716;2023-12-28T09:17:01;2.00;;;0.95;;
22543;SDS011;11438;52.044;8.716;2023-12-28T09:19:27;3.60;;;1.38;;
22543;SDS011;11438;52.044;8.716;2023-12-28T09:21:53;2.88;;;1.40;;
22543;SDS011;11438;52.044;8.716;2023-12-28T09:24:18;3.45;;;1.30;;
22543;SDS011;11438;52.044;8.716;2023-12-28T09:26:44;2.95;;;1.38;;
22543;SDS011;11438;52.044;8.716;2023-12-28T09:29:10;3.80;;;1.27;;
22543;SDS011;11438;52.044;8.716;2023-12-28T09:31:35;5.15;;;1.55;;
22543;SDS011;11438;52.044;8.716;2023-12-28T09:34:02;3.55;;;1.20;;
22543;SDS011;11438;52.044;8.716;2023-12-28T09:36:29;3.40;;;1.30;;
22543;SDS011;11438;52.044;8.716;2023-12-28T09:38:55;2.45;;;1.17;;
22543;SDS011;11438;52.044;8.716;2023-12-28T09:41:21;3.22;;;1.30;;
22543;SDS011;11438;52.044;8.716;2023-12-28T09:43:53;4.25;;;1.38;;
22543;SDS011;11438;52.044;8.716;2023-12-28T09:46:22;3.15;;;1.17;;
22543;SDS011;11438;52.044;8.716;2023-12-28T09:48:47;3.15;;;1.38;;
22543;SDS011;11438;52.044;8.716;2023-12-28T09:51:14;4.55;;;1.20;;
22543;SDS011;11438;52.044;8.716;2023-12-28T09:53:39;4.53;;;1.00;;
22543;SDS011;11438;52.044;8.716;2023-12-28T09:56:05;3.67;;;1.38;;
22543;SDS011;11438;52.044;8.716;2023-12-28T09:58:31;4.70;;;1.10;;
22543;SDS011;11438;52.044;8.716;2023-12-28T10:01:00;4.93;;;1.40;;
22543;SDS011;11438;52.044;8.716;2023-12-28T10:03:26;3.53;;;1.30;;
22543;SDS011;11438;52.044;8.716;2023-12-28T10:05:52;3.65;;;1.30;;
22543;SDS011;11438;52.044;8.716;2023-12-28T10:08:18;2.28;;;1.20;;
22543;SDS011;11438;52.044;8.716;2023-12-28T10:10:44;3.17;;;1.40;;
22543;SDS011;11438;52.044;8.716;2023-12-28T10:13:16;5.90;;;1.38;;
22543;SDS011;11438;52.044;8.716;2023-12-28T10:15:42;4.78;;;1.20;;
22543;SDS011;11438;52.044;8.716;2023-12-28T10:18:08;4.63;;;1.30;;
22543;SDS011;11438;52.044;8.716;2023-12-28T10:20:34;1.88;;;1.05;;
22543;SDS011;11438;52.044;8.716;2023-12-28T10:22:59;3.78;;;1.13;;
22543;SDS011;11438;52.044;8.716;2023-12-28T10:25:28;5.03;;;1.50;;
22543;SDS011;11438;52.044;8.716;2023-12-28T10:27:56;2.78;;;1.20;;
22543;SDS011;11438;52.044;8.716;2023-12-28T10:30:22;4.70;;;1.33;;
22543;SDS011;11438;52.044;8.716;2023-12-28T10:32:48;4.07;;;1.10;;
22543;SDS011;11438;52.044;8.716;2023-12-28T10:35:14;9.55;;;1.40;;
22543;SDS011;11438;52.044;8.716;2023-12-28T10:37:40;3.53;;;1.13;;
22543;SDS011;11438;52.044;8.716;2023-12-28T10:40:07;5.60;;;1.63;;
22543;SDS011;11438;52.044;8.716;2023-12-28T10:42:37;2.22;;;1.17;;
22543;SDS011;11438;52.044;8.716;2023-12-28T10:45:09;6.38;;;1.10;;
22543;SDS011;11438;52.044;8.716;2023-12-28T10:47:42;7.57;;;1.52;;
22543;SDS011;11438;52.044;8.716;2023-12-28T10:50:10;3.80;;;1.20;;
22543;SDS011;11438;52.044;8.716;2023-12-28T10:52:36;5.00;;;1.38;;
22543;SDS011;11438;52.044;8.716;2023-12-28T10:58:17;2.17;;;0.95;;
22543;SDS011;11438;52.044;8.716;2023-12-28T11:00:56;4.95;;;1.35;;
22543;SDS011;11438;52.044;8.716;2023-12-28T11:03:30;4.82;;;1.20;;
22543;SDS011;11438;52.044;8.716;2023-12-28T11:05:59;4.43;;;1.25;;
22543;SDS011;11438;52.044;8.716;2023-12-28T11:08:27;4.00;;;1.40;;
22543;SDS011;11438;52.044;8.716;2023-12-28T11:10:54;6.40;;;1.25;;
22543;SDS011;11438;52.044;8.716;2023-12-28T11:13:21;5.32;;;1.67;;
22543;SDS011;11438;52.044;8.716;2023-12-28T11:15:48;4.30;;;1.40;;
22543;SDS011;11438;52.044;8.716;2023-12-28T11:18:15;5.68;;;2.03;;
22543;SDS011;11438;52.044;8.716;2023-12-28T11:20:42;3.13;;;1.60;;
22543;SDS011;11438;52.044;8.716;2023-12-28T11:23:08;3.58;;;1.33;;
22543;SDS011;11438;52.044;8.716;2023-12-28T11:25:35;5.20;;;1.35;;
22543;SDS011;11438;52.044;8.716;2023-12-28T11:28:08;5.38;;;1.20;;
22543;SDS011;11438;52.044;8.716;2023-12-28T11:30:34;5.40;;;1.48;;
22543;SDS011;11438;52.044;8.716;2023-12-28T11:33:01;5.57;;;1.38;;
22543;SDS011;11438;52.044;8.716;2023-12-28T11:36:02;4.95;;;1.40;;
22543;SDS011;11438;52.044;8.716;2023-12-28T11:38:22;4.78;;;1.50;;
22543;SDS011;11438;52.044;8.716;2023-12-28T11:40:50;6.90;;;1.63;;
22543;SDS011;11438;52.044;8.716;2023-12-28T11:43:20;4.30;;;1.30;;
22543;SDS011;11438;52.044;8.716;2023-12-28T11:45:54;5.68;;;1.73;;
22543;SDS011;11438;52.044;8.716;2023-12-28T11:48:24;5.45;;;1.45;;
22543;SDS011;11438;52.044;8.716;2023-12-28T11:50:52;5.13;;;1.25;;
22543;SDS011;11438;52.044;8.716;2023-12-28T11:53:20;4.10;;;1.40;;
22543;SDS011;11438;52.044;8.716;2023-12-28T11:55:46;6.10;;;1.50;;
22543;SDS011;11438;52.044;8.716;2023-12-28T11:58:12;5.57;;;1.30;;
22543;SDS011;11438;52.044;8.716;2023-12-28T12:00:37;5.43;;;1.83;;
22543;SDS011;11438;52.044;8.716;2023-12-28T12:03:05;3.83;;;1.10;;
22543;SDS011;11438;52.044;8.716;2023-12-28T12:05:31;6.47;;;1.63;;
22543;SDS011;11438;52.044;8.716;2023-12-28T12:07:56;4.93;;;1.35;;
22543;SDS011;11438;52.044;8.716;2023-12-28T12:10:22;4.07;;;0.98;;
22543;SDS011;11438;52.044;8.716;2023-12-28T12:12:47;5.45;;;1.20;;
22543;SDS011;11438;52.044;8.716;2023-12-28T12:15:17;6.22;;;1.52;;
22543;SDS011;11438;52.044;8.716;2023-12-28T12:17:43;9.70;;;1.50;;
22543;SDS011;11438;52.044;8.716;2023-12-28T12:20:09;4.55;;;1.25;;
22543;SDS011;11438;52.044;8.716;2023-12-28T12:22:35;4.22;;;1.02;;
22543;SDS011;11438;52.044;8.716;2023-12-28T12:25:02;6.15;;;1.42;;
22543;SDS011;11438;52.044;8.716;2023-12-28T12:27:30;9.15;;;1.42;;
22543;SDS011;11438;52.044;8.716;2023-12-28T12:29:55;5.28;;;1.35;;
22543;SDS011;11438;52.044;8.716;2023-12-28T12:32:21;5.53;;;1.48;;
22543;SDS011;11438;52.044;8.716;2023-12-28T12:34:47;7.38;;;1.45;;
22543;SDS011;11438;52.044;8.716;2023-12-28T12:37:13;4.05;;;1.30;;
22543;SDS011;11438;52.044;8.716;2023-12-28T12:39:38;4.93;;;1.10;;
22543;SDS011;11438;52.044;8.716;2023-12-28T12:42:04;6.75;;;1.30;;
22543;SDS011;11438;52.044;8.716;2023-12-28T12:44:30;4.10;;;1.00;;
22543;SDS011;11438;52.044;8.716;2023-12-28T12:46:56;5.82;;;1.40;;
22543;SDS011;11438;52.044;8.716;2023-12-28T12:49:25;5.07;;;1.23;;
22543;SDS011;11438;52.044;8.716;2023-12-28T12:51:51;3.88;;;1.27;;
22543;SDS011;11438;52.044;8.716;2023-12-28T12:54:16;6.05;;;1.27;;
22543;SDS011;11438;52.044;8.716;2023-12-28T12:56:45;5.65;;;1.48;;
22543;SDS011;11438;52.044;8.716;2023-12-28T12:59:11;6.70;;;1.55;;
22543;SDS011;11438;52.044;8.716;2023-12-28T13:01:42;5.38;;;1.17;;
22543;SDS011;11438;52.044;8.716;2023-12-28T13:04:08;6.60;;;1.52;;
22543;SDS011;11438;52.044;8.716;2023-12-28T13:06:34;5.85;;;1.60;;
22543;SDS011;11438;52.044;8.716;2023-12-28T13:08:59;6.68;;;1.23;;
22543;SDS011;11438;52.044;8.716;2023-12-28T13:11:25;5.15;;;1.00;;
22543;SDS011;11438;52.044;8.716;2023-12-28T13:13:51;6.03;;;1.30;;
22543;SDS011;11438;52.044;8.716;2023-12-28T13:16:19;5.32;;;1.27;;
22543;SDS011;11438;52.044;8.716;2023-12-28T13:18:45;4.20;;;1.13;;
22543;SDS011;11438;52.044;8.716;2023-12-28T13:21:10;6.10;;;1.13;;
22543;SDS011;11438;52.044;8.716;2023-12-28T13:23:36;5.75;;;1.20;;
22543;SDS011;11438;52.044;8.716;2023-12-28T13:26:01;5.05;;;1.15;;
22543;SDS011;11438;52.044;8.716;2023-12-28T13:28:27;5.18;;;1.27;;
22543;SDS011;11438;52.044;8.716;2023-12-28T13:30:52;5.68;;;1.27;;
22543;SDS011;11438;52.044;8.716;2023-12-28T13:33:20;5.22;;;1.40;;
22543;SDS011;11438;52.044;8.716;2023-12-28T13:35:46;5.97;;;1.00;;
22543;SDS011;11438;52.044;8.716;2023-12-28T13:38:12;3.47;;;0.95;;
22543;SDS011;11438;52.044;8.716;2023-12-28T13:40:37;6.95;;;1.30;;
22543;SDS011;11438;52.044;8.716;2023-12-28T13:43:03;5.28;;;1.40;;
22543;SDS011;11438;52.044;8.716;2023-12-28T13:45:28;7.10;;;1.27;;
22543;SDS011;11438;52.044;8.716;2023-12-28T13:47:54;7.90;;;1.73;;
22543;SDS011;11438;52.044;8.716;2023-12-28T13:50:19;5.15;;;1.73;;
22543;SDS011;11438;52.044;8.716;2023-12-28T13:52:45;5.00;;;1.40;;
22543;SDS011;11438;52.044;8.716;2023-12-28T13:55:11;3.67;;;1.17;;
22543;SDS011;11438;52.044;8.716;2023-12-28T13:57:36;7.30;;;1.10;;
22543;SDS011;11438;52.044;8.716;2023-12-28T14:00:02;5.22;;;1.25;;
22543;SDS011;11438;52.044;8.716;2023-12-28T14:02:28;4.10;;;1.17;;
22543;SDS011;11438;52.044;8.716;2023-12-28T14:04:54;2.88;;;0.73;;
22543;SDS011;11438;52.044;8.716;2023-12-28T14:07:21;3.33;;;1.30;;
22543;SDS011;11438;52.044;8.716;2023-12-28T14:09:49;4.85;;;0.98;;
22543;SDS011;11438;52.044;8.716;2023-12-28T14:12:15;4.82;;;1.10;;
22543;SDS011;11438;52.044;8.716;2023-12-28T14:14:41;2.72;;;0.90;;
22543;SDS011;11438;52.044;8.716;2023-12-28T14:17:06;5.03;;;1.00;;
22543;SDS011;11438;52.044;8.716;2023-12-28T14:19:32;4.95;;;1.27;;
22543;SDS011;11438;52.044;8.716;2023-12-28T14:21:58;4.55;;;1.20;;
22543;SDS011;11438;52.044;8.716;2023-12-28T14:24:24;5.93;;;1.38;;
22543;SDS011;11438;52.044;8.716;2023-12-28T14:26:51;5.10;;;1.15;;
22543;SDS011;11438;52.044;8.716;2023-12-28T14:29:18;4.30;;;1.00;;
22543;SDS011;11438;52.044;8.716;2023-12-28T14:31:45;4.35;;;1.00;;
22543;SDS011;11438;52.044;8.716;2023-12-28T14:34:11;5.28;;;1.30;;
22543;SDS011;11438;52.044;8.716;2023-12-28T14:36:37;6.72;;;1.40;;
22543;SDS011;11438;52.044;8.716;2023-12-28T14:39:04;6.15;;;1.65;;
22543;SDS011;11438;52.044;8.716;2023-12-28T14:41:31;5.15;;;1.20;;
22543;SDS011;11438;52.044;8.716;2023-12-28T14:43:58;9.32;;;1.20;;
22543;SDS011;11438;52.044;8.716;2023-12-28T14:46:24;7.85;;;1.10;;